Time;durP1;ratioP1;P1;durP2;ratioP2;P2;SDS_P1;SDS_P2;PMS_P1;PMS_P2;Temp;Humidity;BMP_temperature;BMP_pressure;BME280_temperature;BME280_humidity;BME280_pressure;Samples;Min_cycle;Max_cycle;Signal;HPM_P1;HPM_P2
2023/04/18 00:00:18;;;;;;;8.65;6.10;;;;;;;6.66;100.00;101597.28;691487;28;1093;-70
2023/04/18 00:00:38;;;;;;;10.20;6.33;;;;;;;6.65;100.00;101592.94;693107;28;1220;-70
2023/04/18 00:01:00;;;;;;;10.70;6.05;;;;;;;6.70;100.00;101588.75;691991;28;4635;-71
2023/04/18 00:01:21;;;;;;;10.15;6.32;;;;;;;6.77;100.00;101595.84;690485;28;1197;-70
2023/04/18 00:01:43;;;;;;;9.48;5.93;;;;;;;6.73;100.00;101588.81;690060;28;1999;-71
2023/04/18 00:02:03;;;;;;;7.90;5.53;;;;;;;6.78;100.00;101592.41;689180;28;1225;-71
2023/04/18 00:02:24;;;;;;;9.73;5.57;;;;;;;6.76;100.00;101591.47;689028;28;901;-71
2023/04/18 00:02:45;;;;;;;10.32;5.93;;;;;;;6.76;100.00;101585.41;688371;28;1350;-71
2023/04/18 00:03:05;;;;;;;9.47;6.03;;;;;;;6.75;100.00;101599.25;687657;28;1349;-71
2023/04/18 00:03:28;;;;;;;8.23;5.87;;;;;;;6.70;100.00;101588.75;685906;28;885;-71
2023/04/18 00:03:49;;;;;;;9.00;6.15;;;;;;;6.71;100.00;101592.22;685451;28;4350;-71
2023/04/18 00:04:10;;;;;;;8.18;5.78;;;;;;;6.69;100.00;101597.38;684318;28;952;-71
2023/04/18 00:04:32;;;;;;;8.95;6.15;;;;;;;6.70;100.00;101585.25;684885;28;1239;-71
2023/04/18 00:04:53;;;;;;;10.80;6.25;;;;;;;6.69;100.00;101591.28;686965;28;817;-70
2023/04/18 00:05:16;;;;;;;11.52;6.32;;;;;;;6.68;100.00;101593.00;688350;28;931;-71
2023/04/18 00:05:39;;;;;;;10.88;6.35;;;;;;;6.68;100.00;101595.59;688346;28;1200;-71
2023/04/18 00:06:01;;;;;;;9.38;6.10;;;;;;;6.66;100.00;101594.69;691946;28;1295;-70
2023/04/18 00:06:21;;;;;;;9.18;5.78;;;;;;;6.67;100.00;101590.38;691305;28;1179;-71
2023/04/18 00:06:42;;;;;;;9.50;6.10;;;;;;;6.65;100.00;101592.94;690414;28;4324;-71
2023/04/18 00:07:02;;;;;;;9.33;6.03;;;;;;;6.68;100.00;101587.81;690870;28;922;-71
2023/04/18 00:07:23;;;;;;;8.45;5.82;;;;;;;6.69;100.00;101593.88;691314;28;774;-70
2023/04/18 00:07:44;;;;;;;9.50;6.00;;;;;;;6.68;100.00;101586.94;691314;28;1044;-70
2023/04/18 00:08:04;;;;;;;9.15;6.13;;;;;;;6.67;100.00;101588.63;690833;28;1216;-70
2023/04/18 00:08:24;;;;;;;9.57;6.35;;;;;;;6.67;100.00;101595.56;691178;28;1234;-70
2023/04/18 00:08:45;;;;;;;8.93;6.10;;;;;;;6.68;100.00;101587.81;687021;28;1205;-70
2023/04/18 00:09:05;;;;;;;8.35;5.85;;;;;;;6.74;100.00;101593.19;688541;28;1294;-71
2023/04/18 00:09:26;;;;;;;8.17;5.80;;;;;;;6.74;100.00;101590.56;688547;28;1277;-70
2023/04/18 00:09:46;;;;;;;8.93;5.97;;;;;;;6.75;100.00;101589.72;688624;28;4462;-70
2023/04/18 00:10:07;;;;;;;9.43;6.00;;;;;;;6.74;100.00;101600.97;688075;28;1333;-70
2023/04/18 00:10:27;;;;;;;7.97;5.80;;;;;;;6.74;100.00;101592.28;688151;28;739;-70
2023/04/18 00:10:48;;;;;;;8.03;5.57;;;;;;;6.72;100.00;101593.97;688422;28;818;-70
2023/04/18 00:11:08;;;;;;;9.30;6.07;;;;;;;6.73;100.00;101594.00;690438;28;1179;-70
2023/04/18 00:11:29;;;;;;;10.10;6.40;;;;;;;6.72;100.00;101591.38;689879;28;1173;-71
2023/04/18 00:11:50;;;;;;;10.87;6.40;;;;;;;6.71;100.00;101584.41;690496;28;903;-70
2023/04/18 00:12:10;;;;;;;8.85;6.32;;;;;;;6.70;100.00;101587.84;690755;28;891;-71
2023/04/18 00:12:33;;;;;;;9.37;6.40;;;;;;;6.69;100.00;101589.56;691777;28;1503;-71
2023/04/18 00:12:53;;;;;;;9.23;6.25;;;;;;;6.68;100.00;101590.41;689440;28;4845;-70
2023/04/18 00:13:17;;;;;;;8.93;5.80;;;;;;;6.68;100.00;101586.94;689108;28;1271;-70
2023/04/18 00:13:38;;;;;;;9.40;6.00;;;;;;;6.68;100.00;101597.34;692188;28;1269;-70
2023/04/18 00:13:59;;;;;;;9.07;6.07;;;;;;;6.67;100.00;101591.22;690484;28;964;-71
2023/04/18 00:14:19;;;;;;;9.50;6.33;;;;;;;6.66;100.00;101594.69;688536;28;1141;-70
2023/04/18 00:14:39;;;;;;;8.75;6.07;;;;;;;6.63;100.00;101594.59;686685;28;1198;-70
2023/04/18 00:15:01;;;;;;;8.67;6.03;;;;;;;6.66;100.00;101594.69;687353;28;1033;-70
2023/04/18 00:15:21;;;;;;;9.07;5.97;;;;;;;6.69;100.00;101596.47;685412;28;1217;-70
2023/04/18 00:15:43;;;;;;;9.60;6.33;;;;;;;6.66;100.00;101594.69;681383;28;4729;-70
2023/04/18 00:16:04;;;;;;;9.68;6.18;;;;;;;6.66;100.00;101589.50;684921;28;1401;-70
2023/04/18 00:16:26;;;;;;;9.38;5.90;;;;;;;6.64;100.00;101592.03;682768;28;1392;-70
2023/04/18 00:16:46;;;;;;;8.57;5.97;;;;;;;6.63;100.00;101592.88;688172;28;830;-71
2023/04/18 00:17:07;;;;;;;9.13;6.00;;;;;;;6.65;100.00;101592.94;687593;28;1230;-70
2023/04/18 00:17:27;;;;;;;9.52;5.85;;;;;;;6.67;100.00;101591.22;688396;28;930;-71
2023/04/18 00:17:48;;;;;;;9.45;6.20;;;;;;;6.70;100.00;101587.84;688541;28;976;-70
2023/04/18 00:18:09;;;;;;;11.57;6.20;;;;;;;6.69;100.00;101586.97;685526;28;948;-69
2023/04/18 00:18:30;;;;;;;9.73;6.10;;;;;;;6.73;100.00;101598.31;685881;28;790;-71
2023/04/18 00:18:51;;;;;;;10.25;6.15;;;;;;;6.71;100.00;101592.22;685595;28;4297;-70
2023/04/18 00:19:13;;;;;;;8.23;5.93;;;;;;;6.75;100.00;101589.72;687687;28;1030;-70
2023/04/18 00:19:34;;;;;;;8.50;6.00;;;;;;;6.86;100.00;101594.31;689003;28;935;-70
2023/04/18 00:19:57;;;;;;;9.38;6.35;;;;;;;6.80;100.00;101593.31;691959;28;880;-70
2023/04/18 00:20:17;;;;;;;10.20;6.30;;;;;;;6.78;100.00;101589.81;692987;28;883;-70
2023/04/18 00:20:38;;;;;;;10.07;6.30;;;;;;;6.75;100.00;101600.09;692716;28;928;-70
2023/04/18 00:20:58;;;;;;;9.57;6.03;;;;;;;6.70;100.00;101591.34;693525;28;1413;-70
2023/04/18 00:21:18;;;;;;;8.70;6.13;;;;;;;6.69;100.00;101594.78;692055;28;1077;-70
2023/04/18 00:21:43;;;;;;;10.47;6.33;;;;;;;6.67;100.00;101591.22;692885;28;1902;-70
2023/04/18 00:22:03;;;;;;;8.90;6.25;;;;;;;6.65;100.00;101592.94;687654;28;4852;-70
2023/04/18 00:22:24;;;;;;;8.73;6.20;;;;;;;6.64;100.00;101585.97;688051;28;1251;-70
2023/04/18 00:22:45;;;;;;;9.38;6.47;;;;;;;6.62;100.00;101588.53;685703;28;1149;-70
2023/04/18 00:23:06;;;;;;;9.02;6.32;;;;;;;6.61;100.00;101591.09;687907;28;925;-70
2023/04/18 00:23:27;;;;;;;9.32;6.40;;;;;;;6.60;100.00;101585.00;686170;28;972;-70
2023/04/18 00:23:47;;;;;;;8.88;6.45;;;;;;;6.56;100.00;101590.97;684741;28;1095;-70
2023/04/18 00:24:08;;;;;;;11.63;6.57;;;;;;;6.54;100.00;101589.19;685468;28;1401;-70
2023/04/18 00:24:28;;;;;;;10.95;6.45;;;;;;;6.54;100.00;101596.97;685353;28;1289;-70
2023/04/18 00:24:51;;;;;;;8.63;6.40;;;;;;;6.55;100.00;101590.91;685216;28;4609;-70
2023/04/18 00:25:11;;;;;;;9.30;6.63;;;;;;;6.58;100.00;101591.00;685223;28;1554;-70
2023/04/18 00:25:32;;;;;;;9.77;6.53;;;;;;;6.59;100.00;101587.56;685944;28;1187;-70
2023/04/18 00:25:52;;;;;;;11.00;6.50;;;;;;;6.58;100.00;101585.81;689222;28;1033;-70
2023/04/18 00:26:13;;;;;;;10.75;6.53;;;;;;;6.56;100.00;101584.88;689640;28;3426;-70
2023/04/18 00:26:33;;;;;;;9.27;6.20;;;;;;;6.57;100.00;101584.06;691678;28;1524;-71
2023/04/18 00:26:55;;;;;;;9.55;6.30;;;;;;;6.56;100.00;101582.28;691603;28;786;-70
2023/04/18 00:27:17;;;;;;;9.18;6.32;;;;;;;6.54;100.00;101584.84;690885;28;1302;-71
2023/04/18 00:27:38;;;;;;;9.95;6.22;;;;;;;6.54;100.00;101591.78;692276;28;814;-70
2023/04/18 00:27:58;;;;;;;12.27;6.90;;;;;;;6.56;100.00;101587.47;689065;28;4269;-70
2023/04/18 00:28:19;;;;;;;12.33;7.07;;;;;;;6.55;100.00;101588.31;687273;28;1450;-70
2023/04/18 00:28:39;;;;;;;9.45;6.82;;;;;;;6.55;100.00;101589.22;688714;28;1190;-70
2023/04/18 00:29:01;;;;;;;9.87;6.83;;;;;;;6.52;100.00;101588.22;691119;28;1606;-70
2023/04/18 00:29:22;;;;;;;10.38;6.90;;;;;;;6.52;100.00;101588.22;689302;28;1472;-71
2023/04/18 00:29:47;;;;;;;8.57;6.38;;;;;;;6.52;100.00;101586.53;689730;28;1156;-71
2023/04/18 00:30:10;;;;;;;9.68;6.32;;;;;;;6.51;100.00;101589.97;689911;28;1160;-70
2023/04/18 00:30:31;;;;;;;10.30;6.50;;;;;;;6.50;100.00;101589.94;689836;28;1250;-70
2023/04/18 00:30:51;;;;;;;9.03;6.50;;;;;;;6.48;100.00;101582.09;687505;28;4348;-70
2023/04/18 00:31:12;;;;;;;9.88;6.40;;;;;;;6.45;100.00;101588.09;684728;28;1179;-70
2023/04/18 00:31:32;;;;;;;9.63;6.23;;;;;;;6.42;100.00;101585.38;687742;28;1062;-71
2023/04/18 00:31:53;;;;;;;10.63;6.73;;;;;;;6.48;100.00;101580.38;686567;28;1002;-70
2023/04/18 00:32:13;;;;;;;9.20;6.70;;;;;;;6.50;100.00;101583.00;686778;28;1370;-71
2023/04/18 00:32:36;;;;;;;8.82;6.20;;;;;;;6.50;100.00;101577.81;684596;28;1424;-71
2023/04/18 00:32:56;;;;;;;9.30;6.32;;;;;;;6.53;100.00;101579.63;681735;28;1386;-70
2023/04/18 00:33:18;;;;;;;8.73;6.18;;;;;;;6.52;100.00;101583.03;683281;28;1313;-70
2023/04/18 00:33:38;;;;;;;9.50;6.35;;;;;;;6.49;100.00;101581.25;684049;28;1607;-70
2023/04/18 00:33:59;;;;;;;10.17;6.80;;;;;;;6.54;100.00;101583.97;682121;28;4411;-71
2023/04/18 00:34:19;;;;;;;11.00;6.70;;;;;;;6.68;100.00;101585.22;682407;28;1564;-71
2023/04/18 00:34:40;;;;;;;10.03;6.90;;;;;;;6.65;100.00;101579.94;683421;28;771;-72
2023/04/18 00:35:03;;;;;;;12.02;6.65;;;;;;;6.63;100.00;101579.00;683057;28;1264;-71
2023/04/18 00:35:23;;;;;;;9.40;6.38;;;;;;;6.61;100.00;101584.16;682046;28;1399;-71
2023/04/18 00:35:44;;;;;;;10.13;7.15;;;;;;;6.68;100.00;101581.75;683529;28;1009;-70
2023/04/18 00:36:04;;;;;;;9.57;6.87;;;;;;;6.69;100.00;101581.78;685779;28;1153;-71
2023/04/18 00:36:26;;;;;;;9.40;6.55;;;;;;;6.75;100.00;101584.53;684304;28;1479;-71
2023/04/18 00:36:47;;;;;;;9.93;6.43;;;;;;;6.70;100.00;101580.94;685076;28;4280;-70
2023/04/18 00:37:08;;;;;;;10.52;6.47;;;;;;;6.67;100.00;101586.03;687140;28;1402;-70
2023/04/18 00:37:29;;;;;;;9.30;6.30;;;;;;;6.61;100.00;101581.56;685372;28;1223;-70
2023/04/18 00:37:49;;;;;;;8.77;6.20;;;;;;;6.61;100.00;101578.09;685400;28;1172;-70
2023/04/18 00:38:10;;;;;;;9.88;6.40;;;;;;;6.59;100.00;101583.25;685330;28;967;-70
2023/04/18 00:38:30;;;;;;;10.33;6.57;;;;;;;6.58;100.00;101580.63;685970;28;1125;-70
2023/04/18 00:38:51;;;;;;;9.73;6.63;;;;;;;6.58;100.00;101578.03;685157;28;4896;-70
2023/04/18 00:39:11;;;;;;;9.43;6.60;;;;;;;6.60;100.00;101581.53;685441;28;873;-70
2023/04/18 00:39:34;;;;;;;9.73;6.43;;;;;;;6.58;100.00;101591.88;683571;28;838;-70
2023/04/18 00:39:55;;;;;;;9.57;6.35;;;;;;;6.56;100.00;101577.09;684243;28;4288;-70
2023/04/18 00:40:15;;;;;;;10.32;6.53;;;;;;;6.63;100.00;101584.19;685062;28;1351;-70
2023/04/18 00:40:36;;;;;;;9.80;6.50;;;;;;;6.59;100.00;101584.94;686016;28;742;-71
2023/04/18 00:40:57;;;;;;;10.77;6.50;;;;;;;6.50;100.00;101593.41;688731;28;837;-70
2023/04/18 00:41:19;;;;;;;9.70;6.50;;;;;;;6.46;100.00;101582.03;685391;28;1301;-69
2023/04/18 00:41:39;;;;;;;9.98;6.88;;;;;;;6.48;100.00;101585.56;689001;28;1883;-70
2023/04/18 00:42:01;;;;;;;11.00;6.83;;;;;;;6.48;100.00;101579.50;689001;28;905;-70
2023/04/18 00:42:24;;;;;;;10.80;6.53;;;;;;;6.45;100.00;101584.59;688794;28;1381;-70
2023/04/18 00:42:44;;;;;;;9.90;6.28;;;;;;;6.44;100.00;101582.84;689768;28;4310;-70
2023/04/18 00:43:07;;;;;;;9.63;6.35;;;;;;;6.43;100.00;101586.28;688326;28;1343;-70
2023/04/18 00:43:28;;;;;;;9.57;6.55;;;;;;;6.41;100.00;101578.44;684544;28;1192;-71
2023/04/18 00:43:48;;;;;;;8.90;6.50;;;;;;;6.40;100.00;101588.81;684131;28;1015;-71
2023/04/18 00:44:08;;;;;;;10.13;6.38;;;;;;;6.44;100.00;101582.84;683027;28;1337;-69
2023/04/18 00:44:31;;;;;;;9.68;6.20;;;;;;;6.46;100.00;101587.22;681621;28;1515;-70
2023/04/18 00:44:51;;;;;;;9.50;6.32;;;;;;;6.46;100.00;101575.97;681836;28;1316;-70
2023/04/18 00:45:11;;;;;;;9.73;6.40;;;;;;;6.46;100.00;101587.22;682674;28;984;-70
2023/04/18 00:45:32;;;;;;;9.67;6.27;;;;;;;6.50;100.00;101579.53;683719;28;1111;-70
2023/04/18 00:45:52;;;;;;;10.05;6.57;;;;;;;6.49;100.00;101576.03;687011;28;4495;-70
2023/04/18 00:46:13;;;;;;;10.23;6.73;;;;;;;6.46;100.00;101576.84;689577;28;1274;-70
2023/04/18 00:46:33;;;;;;;9.63;6.70;;;;;;;6.48;100.00;101588.16;690118;28;1218;-70
2023/04/18 00:46:54;;;;;;;9.83;6.83;;;;;;;6.48;100.00;101577.78;687774;28;1385;-70
2023/04/18 00:47:16;;;;;;;9.82;6.60;;;;;;;6.46;100.00;101578.56;686052;28;1340;-70
2023/04/18 00:47:36;;;;;;;8.65;6.30;;;;;;;6.46;100.00;101586.34;683513;28;1436;-70
2023/04/18 00:47:57;;;;;;;9.63;6.30;;;;;;;6.46;100.00;101583.75;684199;28;960;-70
2023/04/18 00:48:17;;;;;;;9.17;6.40;;;;;;;6.48;100.00;101580.38;684658;28;1169;-70
2023/04/18 00:48:38;;;;;;;9.80;6.28;;;;;;;6.44;100.00;101573.34;686089;28;774;-70
2023/04/18 00:48:58;;;;;;;10.30;6.67;;;;;;;6.44;100.00;101580.25;688213;28;4319;-70
2023/04/18 00:49:20;;;;;;;9.63;6.47;;;;;;;6.50;100.00;101574.34;688161;28;1164;-69
2023/04/18 00:49:42;;;;;;;10.20;6.45;;;;;;;6.48;100.00;101574.31;686634;28;1216;-70
2023/04/18 00:50:03;;;;;;;10.45;6.40;;;;;;;6.50;100.00;101579.53;685565;28;893;-70
2023/04/18 00:50:23;;;;;;;9.63;6.50;;;;;;;6.51;100.00;101578.69;679978;28;1325;-70
2023/04/18 00:50:44;;;;;;;9.15;6.78;;;;;;;6.50;100.00;101583.00;682752;28;1539;-70
2023/04/18 00:51:06;;;;;;;9.73;7.00;;;;;;;6.48;100.00;101575.19;680560;28;1394;-74
2023/04/18 00:51:27;;;;;;;11.20;6.80;;;;;;;6.52;100.00;101572.66;685030;28;1566;-69
2023/04/18 00:51:48;;;;;;;10.15;6.45;;;;;;;6.54;100.00;101577.06;683973;28;4331;-72
2023/04/18 00:52:10;;;;;;;9.73;6.63;;;;;;;6.66;100.00;101568.72;681380;28;1908;-71
2023/04/18 00:52:34;;;;;;;9.52;6.50;;;;;;;6.65;100.00;101577.34;683391;28;1243;-71
2023/04/18 00:52:55;;;;;;;9.57;6.28;;;;;;;6.57;100.00;101576.25;683928;28;1239;-70
2023/04/18 00:53:15;;;;;;;13.05;6.63;;;;;;;6.53;100.00;101577.88;685978;28;1256;-70
2023/04/18 00:53:36;;;;;;;9.68;6.25;;;;;;;6.57;100.00;101576.25;685899;28;1274;-70
2023/04/18 00:53:57;;;;;;;9.17;6.47;;;;;;;6.69;100.00;101570.47;682363;28;1382;-70
2023/04/18 00:54:18;;;;;;;9.93;6.30;;;;;;;6.67;100.00;101578.25;681694;28;1212;-71
2023/04/18 00:54:39;;;;;;;10.07;6.88;;;;;;;6.62;100.00;101575.53;681928;28;1216;-70
2023/04/18 00:55:02;;;;;;;10.20;7.20;;;;;;;6.63;100.00;101571.22;686964;28;4602;-70
2023/04/18 00:55:23;;;;;;;10.55;6.75;;;;;;;6.60;100.00;101573.72;687177;28;1401;-70
2023/04/18 00:55:43;;;;;;;10.32;6.45;;;;;;;6.59;100.00;101572.88;691264;28;951;-70
2023/04/18 00:56:05;;;;;;;10.73;6.67;;;;;;;6.55;100.00;101570.13;690571;28;1230;-70
2023/04/18 00:56:25;;;;;;;8.95;6.40;;;;;;;6.50;100.00;101577.81;685836;28;1373;-70
2023/04/18 00:56:46;;;;;;;9.77;6.57;;;;;;;6.47;100.00;101573.41;684323;28;814;-70
2023/04/18 00:57:09;;;;;;;11.13;6.70;;;;;;;6.44;100.00;101573.34;684914;28;1700;-71
2023/04/18 00:57:29;;;;;;;10.30;6.68;;;;;;;6.40;100.00;101574.09;684235;28;1174;-70
2023/04/18 00:57:50;;;;;;;10.03;6.57;;;;;;;6.36;100.00;101568.78;686831;28;4477;-71
2023/04/18 00:58:11;;;;;;;9.65;6.07;;;;;;;6.34;100.00;101571.34;690777;28;1236;-70
2023/04/18 00:58:31;;;;;;;9.53;6.47;;;;;;;6.35;100.00;101572.22;688269;28;1211;-71
2023/04/18 00:58:52;;;;;;;10.18;6.65;;;;;;;6.30;100.00;101569.50;685349;28;1242;-70
2023/04/18 00:59:13;;;;;;;10.57;6.67;;;;;;;6.32;100.00;101570.41;685284;28;1024;-70
2023/04/18 00:59:34;;;;;;;9.82;6.90;;;;;;;6.32;100.00;101570.41;684933;28;1299;-70
2023/04/18 00:59:55;;;;;;;10.35;6.30;;;;;;;6.29;100.00;101571.19;681547;28;1424;-70
2023/04/18 01:00:15;;;;;;;9.95;6.70;;;;;;;6.39;100.00;101574.06;682329;28;1163;-70
2023/04/18 01:00:36;;;;;;;8.48;6.07;;;;;;;6.40;100.00;101568.03;685023;28;1159;-72
2023/04/18 01:00:56;;;;;;;9.23;6.10;;;;;;;6.38;100.00;101573.16;684232;28;4504;-71
2023/04/18 01:01:17;;;;;;;10.27;6.32;;;;;;;6.33;100.00;101574.75;682048;28;1052;-70
2023/04/18 01:01:39;;;;;;;9.50;6.28;;;;;;;6.32;100.00;101572.13;684572;28;1918;-71
2023/04/18 01:02:00;;;;;;;9.48;6.53;;;;;;;6.34;100.00;101571.34;682930;28;1289;-70
2023/04/18 01:02:21;;;;;;;8.68;6.15;;;;;;;6.31;100.00;101573.81;683210;28;1338;-70
2023/04/18 01:02:41;;;;;;;9.82;6.85;;;;;;;6.30;100.00;101572.97;685374;28;1172;-70
2023/04/18 01:03:02;;;;;;;8.90;6.70;;;;;;;6.29;100.00;101562.53;686160;28;762;-69
2023/04/18 01:03:24;;;;;;;10.23;6.72;;;;;;;6.22;100.00;101574.47;685285;28;1753;-70
2023/04/18 01:03:44;;;;;;;9.88;6.57;;;;;;;6.22;100.00;101576.19;683756;28;4696;-70
2023/04/18 01:04:08;;;;;;;10.77;6.22;;;;;;;6.21;100.00;101570.09;682538;28;1539;-70
2023/04/18 01:04:30;;;;;;;10.43;6.60;;;;;;;6.26;100.00;101575.44;682107;28;1249;-70
2023/04/18 01:04:51;;;;;;;10.44;6.70;;;;;;;6.27;100.00;101571.97;680362;28;1029;-70
2023/04/18 01:05:11;;;;;;;9.73;6.73;;;;;;;6.25;100.00;101568.47;683431;28;1402;-71
2023/04/18 01:05:33;;;;;;;9.10;6.63;;;;;;;6.23;100.00;101573.63;686314;28;1334;-70
2023/04/18 01:05:54;;;;;;;9.05;6.55;;;;;;;6.22;100.00;101573.59;688549;28;1258;-70
2023/04/18 01:06:14;;;;;;;10.87;6.50;;;;;;;6.21;100.00;101571.81;686978;28;1109;-70
2023/04/18 01:06:38;;;;;;;9.32;6.13;;;;;;;6.19;100.00;101573.50;688115;28;861;-70
2023/04/18 01:07:00;;;;;;;8.30;6.20;;;;;;;6.19;100.00;101570.88;682164;28;4345;-70
2023/04/18 01:07:24;;;;;;;9.15;6.70;;;;;;;6.26;100.00;101565.91;685026;28;1379;-71
2023/04/18 01:07:44;;;;;;;9.70;6.68;;;;;;;6.26;100.00;101570.25;682410;28;1740;-71
2023/04/18 01:08:05;;;;;;;9.90;6.70;;;;;;;6.21;100.00;101564.91;684488;28;1050;-70
2023/04/18 01:08:28;;;;;;;9.63;6.50;;;;;;;6.20;100.00;101577.84;682614;28;853;-70
2023/04/18 01:08:52;;;;;;;9.45;6.53;;;;;;;6.18;100.00;101570.03;683820;28;1204;-70
2023/04/18 01:09:13;;;;;;;10.05;6.55;;;;;;;6.17;100.00;101565.66;683589;28;1291;-70
2023/04/18 01:09:33;;;;;;;9.85;6.13;;;;;;;6.18;100.00;101575.22;688194;28;1492;-70
2023/04/18 01:09:54;;;;;;;10.20;6.40;;;;;;;6.17;100.00;101567.38;686523;28;4358;-71
2023/04/18 01:10:15;;;;;;;10.55;6.18;;;;;;;6.12;100.00;101570.72;685695;28;999;-70
2023/04/18 01:10:36;;;;;;;9.57;6.40;;;;;;;6.10;100.00;101566.34;687188;28;1300;-70
2023/04/18 01:10:56;;;;;;;10.93;6.45;;;;;;;6.16;100.00;101570.81;690411;28;788;-70
2023/04/18 01:11:17;;;;;;;8.83;6.57;;;;;;;6.20;100.00;101568.34;689404;28;850;-71
2023/04/18 01:11:37;;;;;;;10.63;6.97;;;;;;;6.19;100.00;101564.00;689944;28;1242;-70
2023/04/18 01:11:57;;;;;;;11.73;7.10;;;;;;;6.18;100.00;101570.03;688550;28;774;-70
2023/04/18 01:12:18;;;;;;;10.40;6.50;;;;;;;6.17;100.00;101567.38;687230;28;1178;-71
2023/04/18 01:12:39;;;;;;;11.03;6.40;;;;;;;6.10;100.00;101563.75;687345;28;1286;-71
2023/04/18 01:13:16;;;;;;;11.10;6.60;;;;;;;6.20;100.00;101567.47;681437;28;4482;-70
2023/04/18 01:13:37;;;;;;;8.35;6.30;;;;;;;6.25;100.00;101565.88;681259;28;1239;-71
2023/04/18 01:14:03;;;;;;;10.63;6.43;;;;;;;6.25;100.00;101568.47;683838;28;817;-70
2023/04/18 01:14:23;;;;;;;9.85;6.63;;;;;;;6.18;100.00;101559.63;684639;28;1090;-69
2023/04/18 01:14:44;;;;;;;10.00;6.80;;;;;;;6.17;100.00;101562.19;688296;28;1131;-70
2023/04/18 01:15:05;;;;;;;10.25;6.90;;;;;;;6.14;100.00;101560.38;686630;28;1238;-71
2023/04/18 01:15:26;;;;;;;10.68;6.47;;;;;;;6.16;100.00;101563.03;683528;28;1497;-70
2023/04/18 01:15:48;;;;;;;10.27;6.60;;;;;;;6.17;100.00;101563.06;683686;28;4327;-70
2023/04/18 01:16:09;;;;;;;9.27;6.47;;;;;;;6.29;100.00;101559.94;681796;28;1262;-70
2023/04/18 01:16:31;;;;;;;9.18;6.40;;;;;;;6.24;100.00;101561.53;681420;28;731;-69
2023/04/18 01:16:52;;;;;;;9.32;6.85;;;;;;;6.19;100.00;101561.41;682245;28;953;-70
2023/04/18 01:17:12;;;;;;;9.20;6.47;;;;;;;6.20;100.00;101559.69;686238;28;1601;-71
2023/04/18 01:17:37;;;;;;;10.07;6.88;;;;;;;6.19;100.00;101560.50;685683;28;1263;-70
2023/04/18 01:17:58;;;;;;;10.50;6.38;;;;;;;6.14;100.00;101557.78;684018;28;945;-70
2023/04/18 01:18:19;;;;;;;11.30;6.30;;;;;;;6.12;100.00;101556.88;686845;28;1212;-70
2023/04/18 01:18:40;;;;;;;10.93;6.45;;;;;;;6.10;100.00;101562.00;685160;28;1181;-70
2023/04/18 01:19:02;;;;;;;9.30;6.70;;;;;;;6.09;100.00;101562.88;687909;28;4853;-70
2023/04/18 01:19:23;;;;;;;10.05;6.95;;;;;;;6.09;100.00;101560.28;683817;28;1260;-70
2023/04/18 01:19:45;;;;;;;9.93;6.57;;;;;;;6.12;100.00;101560.34;684232;28;1228;-71
2023/04/18 01:20:09;;;;;;;10.07;6.93;;;;;;;6.17;100.00;101557.00;684635;28;924;-70
2023/04/18 01:20:30;;;;;;;10.20;6.85;;;;;;;6.11;100.00;101563.78;686631;28;1256;-70
2023/04/18 01:20:52;;;;;;;10.32;7.00;;;;;;;6.08;100.00;101563.69;686302;28;1299;-70
2023/04/18 01:21:13;;;;;;;11.10;7.07;;;;;;;6.05;100.00;101566.22;687058;28;1395;-70
2023/04/18 01:21:42;;;;;;;10.23;6.50;;;;;;;6.04;100.00;101559.25;684272;28;1910;-69
2023/04/18 01:22:09;;;;;;;10.00;6.97;;;;;;;5.98;100.00;101559.06;680639;28;5099;-71
2023/04/18 01:22:30;;;;;;;9.60;6.85;;;;;;;5.99;100.00;101558.22;684605;28;3323;-70
2023/04/18 01:22:51;;;;;;;10.00;6.93;;;;;;;5.99;100.00;101558.22;682414;28;1281;-71
2023/04/18 01:23:12;;;;;;;9.97;6.53;;;;;;;6.00;100.00;101556.53;684162;28;1518;-70
2023/04/18 01:23:33;;;;;;;9.82;6.88;;;;;;;6.00;100.00;101559.13;687688;28;830;-71
2023/04/18 01:23:58;;;;;;;10.83;7.17;;;;;;;5.96;100.00;101553.81;687641;28;1265;-70
2023/04/18 01:24:19;;;;;;;10.55;7.20;;;;;;;6.09;100.00;101560.28;688075;28;1672;-70
2023/04/18 01:24:41;;;;;;;10.88;7.28;;;;;;;6.12;100.00;101552.56;688449;28;4552;-71
2023/04/18 01:25:07;;;;;;;10.57;7.10;;;;;;;6.11;100.00;101553.38;687675;28;1402;-72
2023/04/18 01:25:27;;;;;;;12.70;7.38;;;;;;;6.08;100.00;101550.72;685440;28;1310;-70
2023/04/18 01:25:50;;;;;;;12.98;7.40;;;;;;;6.03;100.00;101549.69;685377;28;1307;-71
2023/04/18 01:26:11;;;;;;;11.30;7.25;;;;;;;6.09;100.00;101555.09;687762;28;1688;-70
2023/04/18 01:26:32;;;;;;;12.00;7.60;;;;;;;6.09;100.00;101554.19;686926;28;1278;-71
2023/04/18 01:26:52;;;;;;;10.90;6.97;;;;;;;6.07;100.00;101550.69;681316;28;1245;-71
2023/04/18 01:27:13;;;;;;;10.27;7.00;;;;;;;6.07;100.00;101555.88;683510;28;1405;-70
2023/04/18 01:27:33;;;;;;;12.60;7.15;;;;;;;6.10;100.00;101553.34;684889;28;814;-70
2023/04/18 01:27:54;;;;;;;10.07;6.70;;;;;;;6.13;100.00;101549.13;681924;28;4458;-70
2023/04/18 01:28:15;;;;;;;10.00;6.93;;;;;;;6.10;100.00;101553.34;688617;28;1539;-70
2023/04/18 01:28:36;;;;;;;10.07;6.80;;;;;;;6.12;100.00;101555.16;688663;28;1203;-70
2023/04/18 01:28:56;;;;;;;11.57;6.80;;;;;;;6.09;100.00;101552.47;682275;28;1203;-70
2023/04/18 01:29:17;;;;;;;10.27;6.80;;;;;;;6.08;100.00;101550.72;680742;28;1706;-70
2023/04/18 01:29:38;;;;;;;13.47;7.07;;;;;;;6.05;100.00;101554.94;682656;28;874;-71
2023/04/18 01:29:58;;;;;;;12.10;7.20;;;;;;;6.03;100.00;101549.69;685074;28;1179;-70
2023/04/18 01:30:21;;;;;;;10.57;7.38;;;;;;;6.01;100.00;101548.78;684629;28;1426;-70
2023/04/18 01:30:42;;;;;;;11.30;7.20;;;;;;;6.00;100.00;101547.03;683608;28;4779;-69
2023/04/18 01:31:02;;;;;;;10.07;7.40;;;;;;;6.04;100.00;101546.28;688991;28;861;-70
2023/04/18 01:31:22;;;;;;;9.93;7.07;;;;;;;6.19;100.00;101558.81;688109;28;1625;-70
2023/04/18 01:31:43;;;;;;;11.50;7.30;;;;;;;6.15;100.00;101551.78;692638;28;1142;-70
2023/04/18 01:32:04;;;;;;;11.15;7.38;;;;;;;6.05;100.00;101545.44;687161;28;1747;-70
2023/04/18 01:32:24;;;;;;;11.48;7.30;;;;;;;6.01;100.00;101541.00;687131;28;1531;-70
2023/04/18 01:32:45;;;;;;;10.98;7.30;;;;;;;5.99;100.00;101552.19;684509;28;1170;-70
2023/04/18 01:33:06;;;;;;;10.93;6.80;;;;;;;6.01;100.00;101550.50;683513;28;1512;-70
2023/04/18 01:33:26;;;;;;;10.32;6.93;;;;;;;5.99;100.00;101552.19;682917;28;1022;-70
2023/04/18 01:33:46;;;;;;;9.43;7.03;;;;;;;5.96;100.00;101552.94;680902;28;4345;-70
2023/04/18 01:34:10;;;;;;;10.77;6.80;;;;;;;5.92;100.00;101546.75;686136;28;1461;-70
2023/04/18 01:34:30;;;;;;;10.57;7.25;;;;;;;5.98;100.00;101546.09;686790;28;841;-69
2023/04/18 01:34:51;;;;;;;10.88;7.13;;;;;;;5.95;100.00;101548.56;686536;28;1351;-70
2023/04/18 01:35:11;;;;;;;10.60;7.20;;;;;;;5.94;100.00;101547.69;684411;28;1469;-71
2023/04/18 01:35:34;;;;;;;10.17;7.00;;;;;;;5.95;100.00;101545.97;681836;28;1235;-70
2023/04/18 01:35:55;;;;;;;10.43;7.00;;;;;;;5.91;100.00;101544.13;680962;28;803;-68
2023/04/18 01:36:15;;;;;;;10.20;6.60;;;;;;;5.93;100.00;101551.13;682715;28;1652;-70
2023/04/18 01:36:37;;;;;;;11.35;7.15;;;;;;;6.02;100.00;101542.75;685179;28;893;-70
2023/04/18 01:36:58;;;;;;;12.13;7.60;;;;;;;5.98;100.00;101548.69;687580;28;4276;-70
2023/04/18 01:37:18;;;;;;;10.55;7.07;;;;;;;6.03;100.00;101546.22;685145;28;1738;-69
2023/04/18 01:37:38;;;;;;;10.57;6.87;;;;;;;6.02;100.00;101541.88;683677;28;909;-69
2023/04/18 01:38:00;;;;;;;10.20;7.35;;;;;;;6.03;100.00;101547.09;683526;28;1620;-69
2023/04/18 01:38:21;;;;;;;9.97;7.17;;;;;;;6.02;100.00;101545.34;686531;28;1723;-70
2023/04/18 01:38:41;;;;;;;10.38;7.10;;;;;;;5.94;100.00;101539.91;688227;28;1250;-70
2023/04/18 01:39:02;;;;;;;10.73;7.10;;;;;;;6.05;100.00;101545.44;685591;28;5387;-69
2023/04/18 01:39:22;;;;;;;11.27;7.00;;;;;;;6.05;100.00;101532.47;685018;28;1567;-66
2023/04/18 01:39:43;;;;;;;11.48;6.70;;;;;;;6.07;100.00;101546.34;685174;28;4342;-70
2023/04/18 01:40:06;;;;;;;10.23;7.50;;;;;;;6.06;100.00;101544.59;684886;28;1488;-70
2023/04/18 01:40:26;;;;;;;11.45;7.55;;;;;;;6.03;100.00;101541.91;681842;28;1725;-70
2023/04/18 01:40:48;;;;;;;11.38;7.57;;;;;;;6.09;100.00;101549.88;681449;28;1231;-70